sensor_id;sensor_type;location;lat;lon;timestamp;temperature;humidity
54796;DHT22;40693;43.884;20.340;2023-10-31T00:02:14;308.10;2304.00
54796;DHT22;40693;43.884;20.340;2023-10-31T00:04:40;308.10;2304.00
54796;DHT22;40693;43.884;20.340;2023-10-31T00:07:06;308.10;2304.00
54796;DHT22;40693;43.884;20.340;2023-10-31T00:09:32;332.80;2329.60
54796;DHT22;40693;43.884;20.340;2023-10-31T00:11:58;308.10;2304.00
54796;DHT22;40693;43.884;20.340;2023-10-31T00:14:24;308.10;2304.00
54796;DHT22;40693;43.884;20.340;2023-10-31T00:16:50;308.10;2304.00
54796;DHT22;40693;43.884;20.340;2023-10-31T00:19:15;308.10;2304.00
54796;DHT22;40693;43.884;20.340;2023-10-31T00:21:41;308.10;2304.00
54796;DHT22;40693;43.884;20.340;2023-10-31T00:24:07;308.00;2304.00
54796;DHT22;40693;43.884;20.340;2023-10-31T00:26:33;307.90;2304.00
54796;DHT22;40693;43.884;20.340;2023-10-31T00:28:58;308.00;2304.00
54796;DHT22;40693;43.884;20.340;2023-10-31T00:31:24;308.00;2304.00
54796;DHT22;40693;43.884;20.340;2023-10-31T00:33:50;308.00;2304.00
54796;DHT22;40693;43.884;20.340;2023-10-31T00:36:15;308.10;2304.00
54796;DHT22;40693;43.884;20.340;2023-10-31T00:38:41;307.90;2304.00
54796;DHT22;40693;43.884;20.340;2023-10-31T00:41:07;307.90;2304.00
54796;DHT22;40693;43.884;20.340;2023-10-31T00:43:33;307.80;2304.00
54796;DHT22;40693;43.884;20.340;2023-10-31T00:45:58;307.70;2304.00
54796;DHT22;40693;43.884;20.340;2023-10-31T00:48:24;307.70;2304.00
54796;DHT22;40693;43.884;20.340;2023-10-31T00:50:50;307.70;2304.00
54796;DHT22;40693;43.884;20.340;2023-10-31T00:53:16;307.70;2304.00
54796;DHT22;40693;43.884;20.340;2023-10-31T00:55:42;307.70;2304.00
54796;DHT22;40693;43.884;20.340;2023-10-31T00:58:08;307.60;2304.00
54796;DHT22;40693;43.884;20.340;2023-10-31T01:00:34;307.70;2304.00
54796;DHT22;40693;43.884;20.340;2023-10-31T01:03:00;307.60;2304.00
54796;DHT22;40693;43.884;20.340;2023-10-31T01:05:25;307.70;2304.00
54796;DHT22;40693;43.884;20.340;2023-10-31T01:07:54;307.50;2304.00
54796;DHT22;40693;43.884;20.340;2023-10-31T01:10:19;307.30;2304.00
54796;DHT22;40693;43.884;20.340;2023-10-31T01:12:45;307.40;2304.00
54796;DHT22;40693;43.884;20.340;2023-10-31T01:15:11;307.40;2304.00
54796;DHT22;40693;43.884;20.340;2023-10-31T01:17:37;307.50;2304.00
54796;DHT22;40693;43.884;20.340;2023-10-31T01:20:03;307.50;2304.00
54796;DHT22;40693;43.884;20.340;2023-10-31T01:22:28;307.40;2304.00
54796;DHT22;40693;43.884;20.340;2023-10-31T01:24:54;307.40;2304.00
54796;DHT22;40693;43.884;20.340;2023-10-31T01:27:20;307.40;2304.00
54796;DHT22;40693;43.884;20.340;2023-10-31T01:29:45;307.40;2304.00
54796;DHT22;40693;43.884;20.340;2023-10-31T01:32:11;307.30;2304.00
54796;DHT22;40693;43.884;20.340;2023-10-31T01:34:37;307.20;2304.00
54796;DHT22;40693;43.884;20.340;2023-10-31T01:37:03;282.50;2278.40
54796;DHT22;40693;43.884;20.340;2023-10-31T01:39:29;307.20;2304.00
54796;DHT22;40693;43.884;20.340;2023-10-31T01:41:54;307.30;2304.00
54796;DHT22;40693;43.884;20.340;2023-10-31T01:44:21;307.30;2304.00
54796;DHT22;40693;43.884;20.340;2023-10-31T01:46:46;307.30;2304.00
54796;DHT22;40693;43.884;20.340;2023-10-31T01:49:13;307.30;2304.00
54796;DHT22;40693;43.884;20.340;2023-10-31T01:51:40;307.40;2304.00
54796;DHT22;40693;43.884;20.340;2023-10-31T01:54:07;307.30;2304.00
54796;DHT22;40693;43.884;20.340;2023-10-31T01:56:33;307.30;2304.00
54796;DHT22;40693;43.884;20.340;2023-10-31T01:58:59;307.30;2304.00
54796;DHT22;40693;43.884;20.340;2023-10-31T02:01:25;307.30;2304.00
54796;DHT22;40693;43.884;20.340;2023-10-31T02:03:51;307.30;2304.00
54796;DHT22;40693;43.884;20.340;2023-10-31T02:06:19;307.70;2304.00
54796;DHT22;40693;43.884;20.340;2023-10-31T02:08:47;307.30;2304.00
54796;DHT22;40693;43.884;20.340;2023-10-31T02:11:12;307.20;2304.00
54796;DHT22;40693;43.884;20.340;2023-10-31T02:13:38;282.50;2278.40
54796;DHT22;40693;43.884;20.340;2023-10-31T02:16:04;282.50;2278.40
54796;DHT22;40693;43.884;20.340;2023-10-31T02:18:30;282.50;2278.40
54796;DHT22;40693;43.884;20.340;2023-10-31T02:20:56;282.50;2278.40
54796;DHT22;40693;43.884;20.340;2023-10-31T02:23:21;282.50;2278.40
54796;DHT22;40693;43.884;20.340;2023-10-31T02:25:47;282.40;2278.40
54796;DHT22;40693;43.884;20.340;2023-10-31T02:28:13;282.40;2278.40
54796;DHT22;40693;43.884;20.340;2023-10-31T02:30:38;282.40;2278.40
54796;DHT22;40693;43.884;20.340;2023-10-31T02:33:04;282.40;2278.40
54796;DHT22;40693;43.884;20.340;2023-10-31T02:35:30;282.50;2278.40
54796;DHT22;40693;43.884;20.340;2023-10-31T02:37:56;282.50;2278.40
54796;DHT22;40693;43.884;20.340;2023-10-31T02:40:21;282.50;2278.40
54796;DHT22;40693;43.884;20.340;2023-10-31T02:42:47;282.50;2278.40
54796;DHT22;40693;43.884;20.340;2023-10-31T02:45:13;282.50;2278.40
54796;DHT22;40693;43.884;20.340;2023-10-31T02:47:39;282.50;2278.40
54796;DHT22;40693;43.884;20.340;2023-10-31T02:50:05;282.30;2278.40
54796;DHT22;40693;43.884;20.340;2023-10-31T02:52:31;282.30;2278.40
54796;DHT22;40693;43.884;20.340;2023-10-31T02:54:57;282.40;2278.40
54796;DHT22;40693;43.884;20.340;2023-10-31T02:57:22;282.30;2278.40
54796;DHT22;40693;43.884;20.340;2023-10-31T02:59:48;282.30;2278.40
54796;DHT22;40693;43.884;20.340;2023-10-31T03:02:14;282.20;2278.40
54796;DHT22;40693;43.884;20.340;2023-10-31T03:04:40;282.20;2278.40
54796;DHT22;40693;43.884;20.340;2023-10-31T03:07:05;282.10;2278.40
54796;DHT22;40693;43.884;20.340;2023-10-31T03:09:31;282.10;2278.40
54796;DHT22;40693;43.884;20.340;2023-10-31T03:11:57;282.10;2278.40
54796;DHT22;40693;43.884;20.340;2023-10-31T03:14:22;282.20;2278.40
54796;DHT22;40693;43.884;20.340;2023-10-31T03:16:48;282.10;2278.40
54796;DHT22;40693;43.884;20.340;2023-10-31T03:19:14;282.10;2278.40
54796;DHT22;40693;43.884;20.340;2023-10-31T03:21:39;282.00;2278.40
54796;DHT22;40693;43.884;20.340;2023-10-31T03:24:05;281.90;2278.40
54796;DHT22;40693;43.884;20.340;2023-10-31T03:26:31;282.00;2278.40
54796;DHT22;40693;43.884;20.340;2023-10-31T03:28:57;282.10;2278.40
54796;DHT22;40693;43.884;20.340;2023-10-31T03:31:23;282.10;2278.40
54796;DHT22;40693;43.884;20.340;2023-10-31T03:33:49;282.20;2278.40
54796;DHT22;40693;43.884;20.340;2023-10-31T03:36:15;282.20;2278.40
54796;DHT22;40693;43.884;20.340;2023-10-31T03:38:41;282.20;2278.40
54796;DHT22;40693;43.884;20.340;2023-10-31T03:41:07;282.20;2278.40
54796;DHT22;40693;43.884;20.340;2023-10-31T03:43:33;282.20;2278.40
54796;DHT22;40693;43.884;20.340;2023-10-31T03:46:00;282.20;2278.40
54796;DHT22;40693;43.884;20.340;2023-10-31T03:48:26;282.20;2278.40
54796;DHT22;40693;43.884;20.340;2023-10-31T03:50:51;282.20;2278.40
54796;DHT22;40693;43.884;20.340;2023-10-31T03:53:17;282.20;2278.40
54796;DHT22;40693;43.884;20.340;2023-10-31T03:55:43;282.20;2278.40
54796;DHT22;40693;43.884;20.340;2023-10-31T03:58:09;282.20;2278.40
54796;DHT22;40693;43.884;20.340;2023-10-31T04:00:35;282.20;2278.40
54796;DHT22;40693;43.884;20.340;2023-10-31T04:03:00;282.30;2278.40
54796;DHT22;40693;43.884;20.340;2023-10-31T04:05:26;282.30;2278.40
54796;DHT22;40693;43.884;20.340;2023-10-31T04:07:52;282.20;2278.40
54796;DHT22;40693;43.884;20.340;2023-10-31T04:10:18;282.30;2278.40
54796;DHT22;40693;43.884;20.340;2023-10-31T04:12:44;282.30;2278.40
54796;DHT22;40693;43.884;20.340;2023-10-31T04:15:10;282.40;2278.40
54796;DHT22;40693;43.884;20.340;2023-10-31T04:17:35;282.40;2278.40
54796;DHT22;40693;43.884;20.340;2023-10-31T04:20:02;282.40;2278.40
54796;DHT22;40693;43.884;20.340;2023-10-31T04:22:28;282.40;2278.40
54796;DHT22;40693;43.884;20.340;2023-10-31T04:24:55;282.50;2278.40
54796;DHT22;40693;43.884;20.340;2023-10-31T04:27:21;282.50;2278.40
54796;DHT22;40693;43.884;20.340;2023-10-31T04:29:47;282.40;2278.40
54796;DHT22;40693;43.884;20.340;2023-10-31T04:32:13;282.30;2278.40
54796;DHT22;40693;43.884;20.340;2023-10-31T04:34:38;282.30;2278.40
54796;DHT22;40693;43.884;20.340;2023-10-31T04:37:04;282.30;2278.40
54796;DHT22;40693;43.884;20.340;2023-10-31T04:39:30;282.30;2278.40
54796;DHT22;40693;43.884;20.340;2023-10-31T04:41:56;282.30;2278.40
54796;DHT22;40693;43.884;20.340;2023-10-31T04:44:22;282.20;2278.40
54796;DHT22;40693;43.884;20.340;2023-10-31T04:46:48;282.20;2278.40
54796;DHT22;40693;43.884;20.340;2023-10-31T04:49:14;282.30;2278.40
54796;DHT22;40693;43.884;20.340;2023-10-31T04:51:41;282.30;2278.40
54796;DHT22;40693;43.884;20.340;2023-10-31T04:54:06;282.30;2278.40
54796;DHT22;40693;43.884;20.340;2023-10-31T04:56:33;282.20;2278.40
54796;DHT22;40693;43.884;20.340;2023-10-31T04:58:59;282.20;2278.40
54796;DHT22;40693;43.884;20.340;2023-10-31T05:01:25;282.20;2278.40
54796;DHT22;40693;43.884;20.340;2023-10-31T05:03:50;282.20;2278.40
54796;DHT22;40693;43.884;20.340;2023-10-31T05:06:20;282.20;2278.40
54796;DHT22;40693;43.884;20.340;2023-10-31T05:08:46;282.20;2278.40
54796;DHT22;40693;43.884;20.340;2023-10-31T05:11:12;282.20;2278.40
54796;DHT22;40693;43.884;20.340;2023-10-31T05:13:38;282.20;2278.40
54796;DHT22;40693;43.884;20.340;2023-10-31T05:16:05;282.20;2278.40
54796;DHT22;40693;43.884;20.340;2023-10-31T05:18:31;282.30;2278.40
54796;DHT22;40693;43.884;20.340;2023-10-31T05:20:56;282.30;2278.40
54796;DHT22;40693;43.884;20.340;2023-10-31T05:23:22;282.40;2278.40
54796;DHT22;40693;43.884;20.340;2023-10-31T05:25:48;282.40;2278.40
54796;DHT22;40693;43.884;20.340;2023-10-31T05:28:13;282.40;2278.40
54796;DHT22;40693;43.884;20.340;2023-10-31T05:30:39;282.50;2278.40
54796;DHT22;40693;43.884;20.340;2023-10-31T05:33:05;282.50;2278.40
54796;DHT22;40693;43.884;20.340;2023-10-31T05:35:30;282.50;2278.40
54796;DHT22;40693;43.884;20.340;2023-10-31T05:37:56;307.20;2304.00
54796;DHT22;40693;43.884;20.340;2023-10-31T05:40:22;307.20;2304.00
54796;DHT22;40693;43.884;20.340;2023-10-31T05:42:50;307.20;2304.00
54796;DHT22;40693;43.884;20.340;2023-10-31T05:45:16;282.50;2278.40
54796;DHT22;40693;43.884;20.340;2023-10-31T05:47:41;282.40;2278.40
54796;DHT22;40693;43.884;20.340;2023-10-31T05:50:08;282.40;2278.40
54796;DHT22;40693;43.884;20.340;2023-10-31T05:52:34;282.40;2278.40
54796;DHT22;40693;43.884;20.340;2023-10-31T05:54:59;282.50;2278.40
54796;DHT22;40693;43.884;20.340;2023-10-31T05:57:25;307.20;2304.00
54796;DHT22;40693;43.884;20.340;2023-10-31T05:59:51;307.20;2304.00
54796;DHT22;40693;43.884;20.340;2023-10-31T06:02:17;307.30;2304.00
54796;DHT22;40693;43.884;20.340;2023-10-31T06:04:42;307.40;2304.00
54796;DHT22;40693;43.884;20.340;2023-10-31T06:07:10;307.40;2304.00
54796;DHT22;40693;43.884;20.340;2023-10-31T06:09:37;307.50;2304.00
54796;DHT22;40693;43.884;20.340;2023-10-31T06:12:02;307.60;2304.00
54796;DHT22;40693;43.884;20.340;2023-10-31T06:14:28;307.50;2304.00
54796;DHT22;40693;43.884;20.340;2023-10-31T06:16:54;307.70;2304.00
54796;DHT22;40693;43.884;20.340;2023-10-31T06:19:21;307.70;2304.00
54796;DHT22;40693;43.884;20.340;2023-10-31T06:21:47;307.60;2304.00
54796;DHT22;40693;43.884;20.340;2023-10-31T06:24:13;307.70;2304.00
54796;DHT22;40693;43.884;20.340;2023-10-31T06:26:39;307.80;2304.00
54796;DHT22;40693;43.884;20.340;2023-10-31T06:29:05;307.90;2304.00
54796;DHT22;40693;43.884;20.340;2023-10-31T06:31:31;307.90;2304.00
54796;DHT22;40693;43.884;20.340;2023-10-31T06:33:57;307.90;2304.00
54796;DHT22;40693;43.884;20.340;2023-10-31T06:36:22;307.90;2304.00
54796;DHT22;40693;43.884;20.340;2023-10-31T06:38:48;307.90;2304.00
54796;DHT22;40693;43.884;20.340;2023-10-31T06:41:14;308.00;2304.00
54796;DHT22;40693;43.884;20.340;2023-10-31T06:43:40;307.90;2304.00
54796;DHT22;40693;43.884;20.340;2023-10-31T06:46:05;307.90;2304.00
54796;DHT22;40693;43.884;20.340;2023-10-31T06:48:32;307.90;2304.00
54796;DHT22;40693;43.884;20.340;2023-10-31T06:50:58;308.00;2304.00
54796;DHT22;40693;43.884;20.340;2023-10-31T06:53:24;308.00;2304.00
54796;DHT22;40693;43.884;20.340;2023-10-31T06:55:49;308.10;2304.00
54796;DHT22;40693;43.884;20.340;2023-10-31T06:58:15;308.10;2304.00
54796;DHT22;40693;43.884;20.340;2023-10-31T07:00:41;332.80;2329.60
54796;DHT22;40693;43.884;20.340;2023-10-31T07:03:06;332.80;2329.60
54796;DHT22;40693;43.884;20.340;2023-10-31T07:05:37;332.90;2329.60
54796;DHT22;40693;43.884;20.340;2023-10-31T07:08:04;332.90;2329.60
54796;DHT22;40693;43.884;20.340;2023-10-31T07:10:30;332.90;2329.60
54796;DHT22;40693;43.884;20.340;2023-10-31T07:12:56;333.00;2329.60
54796;DHT22;40693;43.884;20.340;2023-10-31T07:15:24;333.00;2329.60
54796;DHT22;40693;43.884;20.340;2023-10-31T07:17:50;333.00;2329.60
54796;DHT22;40693;43.884;20.340;2023-10-31T07:20:16;333.00;2329.60
54796;DHT22;40693;43.884;20.340;2023-10-31T07:22:41;333.10;2329.60
54796;DHT22;40693;43.884;20.340;2023-10-31T07:25:07;333.20;2329.60
54796;DHT22;40693;43.884;20.340;2023-10-31T07:27:33;333.20;2329.60
54796;DHT22;40693;43.884;20.340;2023-10-31T07:29:59;333.20;2329.60
54796;DHT22;40693;43.884;20.340;2023-10-31T07:32:25;333.20;2329.60
54796;DHT22;40693;43.884;20.340;2023-10-31T07:34:51;333.30;2329.60
54796;DHT22;40693;43.884;20.340;2023-10-31T07:37:18;333.40;2329.60
54796;DHT22;40693;43.884;20.340;2023-10-31T07:39:43;333.40;2329.60
54796;DHT22;40693;43.884;20.340;2023-10-31T07:42:09;333.40;2329.60
54796;DHT22;40693;43.884;20.340;2023-10-31T07:44:35;333.40;2329.60
54796;DHT22;40693;43.884;20.340;2023-10-31T07:47:01;333.40;2329.60
54796;DHT22;40693;43.884;20.340;2023-10-31T07:49:27;333.40;2329.60
54796;DHT22;40693;43.884;20.340;2023-10-31T07:51:52;333.40;2329.60
54796;DHT22;40693;43.884;20.340;2023-10-31T07:54:18;333.40;2329.60
54796;DHT22;40693;43.884;20.340;2023-10-31T07:56:44;333.40;2329.60
54796;DHT22;40693;43.884;20.340;2023-10-31T07:59:10;333.40;2329.60
54796;DHT22;40693;43.884;20.340;2023-10-31T08:01:36;333.40;2329.60
54796;DHT22;40693;43.884;20.340;2023-10-31T08:04:02;333.40;2329.60
54796;DHT22;40693;43.884;20.340;2023-10-31T08:06:28;333.50;2329.60
54796;DHT22;40693;43.884;20.340;2023-10-31T08:08:54;333.50;2329.60
54796;DHT22;40693;43.884;20.340;2023-10-31T08:11:20;333.60;2329.60
54796;DHT22;40693;43.884;20.340;2023-10-31T08:13:45;333.70;2329.60
54796;DHT22;40693;43.884;20.340;2023-10-31T08:16:17;333.60;2329.60
54796;DHT22;40693;43.884;20.340;2023-10-31T08:18:44;358.40;2329.60
54796;DHT22;40693;43.884;20.340;2023-10-31T08:21:11;358.50;2329.60
54796;DHT22;40693;43.884;20.340;2023-10-31T08:23:37;358.60;2329.60
54796;DHT22;40693;43.884;20.340;2023-10-31T08:26:02;358.70;2329.60
54796;DHT22;40693;43.884;20.340;2023-10-31T08:28:28;358.80;2329.60
54796;DHT22;40693;43.884;20.340;2023-10-31T08:30:54;358.90;2329.60
54796;DHT22;40693;43.884;20.340;2023-10-31T08:33:20;359.00;2329.60
54796;DHT22;40693;43.884;20.340;2023-10-31T08:35:45;359.20;2329.60
54796;DHT22;40693;43.884;20.340;2023-10-31T08:38:13;359.30;2329.60
54796;DHT22;40693;43.884;20.340;2023-10-31T08:40:38;384.10;2329.60
54796;DHT22;40693;43.884;20.340;2023-10-31T08:43:04;384.20;2329.60
54796;DHT22;40693;43.884;20.340;2023-10-31T08:45:32;384.40;2329.60
54796;DHT22;40693;43.884;20.340;2023-10-31T08:47:58;384.60;2329.60
54796;DHT22;40693;43.884;20.340;2023-10-31T08:50:24;384.90;2329.60
54796;DHT22;40693;43.884;20.340;2023-10-31T08:52:50;409.70;2355.20
54796;DHT22;40693;43.884;20.340;2023-10-31T08:55:16;410.00;2355.20
54796;DHT22;40693;43.884;20.340;2023-10-31T08:57:42;410.10;2355.20
54796;DHT22;40693;43.884;20.340;2023-10-31T09:00:08;410.20;2355.20
54796;DHT22;40693;43.884;20.340;2023-10-31T09:02:34;410.30;2355.20
54796;DHT22;40693;43.884;20.340;2023-10-31T09:04:59;410.30;2355.20
54796;DHT22;40693;43.884;20.340;2023-10-31T09:07:25;410.40;2355.20
54796;DHT22;40693;43.884;20.340;2023-10-31T09:09:51;410.50;2355.20
54796;DHT22;40693;43.884;20.340;2023-10-31T09:12:17;435.30;2355.20
54796;DHT22;40693;43.884;20.340;2023-10-31T09:14:42;435.40;2355.20
54796;DHT22;40693;43.884;20.340;2023-10-31T09:17:08;435.50;2355.20
54796;DHT22;40693;43.884;20.340;2023-10-31T09:19:34;435.60;2355.20
54796;DHT22;40693;43.884;20.340;2023-10-31T09:21:59;435.60;2355.20
54796;DHT22;40693;43.884;20.340;2023-10-31T09:24:25;435.60;2355.20
54796;DHT22;40693;43.884;20.340;2023-10-31T09:26:51;435.70;2355.20
54796;DHT22;40693;43.884;20.340;2023-10-31T09:29:17;435.80;2355.20
54796;DHT22;40693;43.884;20.340;2023-10-31T09:31:42;435.80;2355.20
54796;DHT22;40693;43.884;20.340;2023-10-31T09:34:08;435.80;2355.20
54796;DHT22;40693;43.884;20.340;2023-10-31T09:36:34;435.70;2355.20
54796;DHT22;40693;43.884;20.340;2023-10-31T09:39:00;435.70;2355.20
54796;DHT22;40693;43.884;20.340;2023-10-31T09:41:26;435.70;2355.20
54796;DHT22;40693;43.884;20.340;2023-10-31T09:43:53;435.70;2355.20
54796;DHT22;40693;43.884;20.340;2023-10-31T09:46:19;435.70;2355.20
54796;DHT22;40693;43.884;20.340;2023-10-31T09:48:45;435.70;2355.20
54796;DHT22;40693;43.884;20.340;2023-10-31T09:51:11;435.70;2355.20
54796;DHT22;40693;43.884;20.340;2023-10-31T09:53:38;435.70;2355.20
54796;DHT22;40693;43.884;20.340;2023-10-31T09:56:07;435.80;2355.20
54796;DHT22;40693;43.884;20.340;2023-10-31T09:58:33;435.80;2355.20
54796;DHT22;40693;43.884;20.340;2023-10-31T10:01:00;435.80;2355.20
54796;DHT22;40693;43.884;20.340;2023-10-31T10:03:27;435.80;2355.20
54796;DHT22;40693;43.884;20.340;2023-10-31T10:05:53;435.80;2355.20
54796;DHT22;40693;43.884;20.340;2023-10-31T10:08:22;435.90;2355.20
54796;DHT22;40693;43.884;20.340;2023-10-31T10:10:49;435.90;2355.20
54796;DHT22;40693;43.884;20.340;2023-10-31T10:13:19;436.00;2355.20
54796;DHT22;40693;43.884;20.340;2023-10-31T10:15:49;435.90;2355.20
54796;DHT22;40693;43.884;20.340;2023-10-31T10:18:28;435.90;2355.20
54796;DHT22;40693;43.884;20.340;2023-10-31T10:21:00;435.90;2355.20
54796;DHT22;40693;43.884;20.340;2023-10-31T10:23:27;435.90;2355.20
54796;DHT22;40693;43.884;20.340;2023-10-31T10:25:54;436.00;2355.20
54796;DHT22;40693;43.884;20.340;2023-10-31T10:28:22;436.00;2355.20
54796;DHT22;40693;43.884;20.340;2023-10-31T10:30:52;436.10;2355.20
54796;DHT22;40693;43.884;20.340;2023-10-31T10:33:18;436.10;2355.20
54796;DHT22;40693;43.884;20.340;2023-10-31T10:35:44;460.80;2380.80
54796;DHT22;40693;43.884;20.340;2023-10-31T10:38:15;460.80;2380.80
54796;DHT22;40693;43.884;20.340;2023-10-31T10:40:48;460.90;2380.80
54796;DHT22;40693;43.884;20.340;2023-10-31T10:43:23;461.00;2380.80
54796;DHT22;40693;43.884;20.340;2023-10-31T10:45:56;461.10;2380.80
54796;DHT22;40693;43.884;20.340;2023-10-31T10:48:26;461.20;2380.80
54796;DHT22;40693;43.884;20.340;2023-10-31T10:51:23;461.30;2380.80
54796;DHT22;40693;43.884;20.340;2023-10-31T10:54:24;461.30;2380.80
54796;DHT22;40693;43.884;20.340;2023-10-31T10:57:01;461.50;2380.80
54796;DHT22;40693;43.884;20.340;2023-10-31T11:02:07;461.60;2380.80
54796;DHT22;40693;43.884;20.340;2023-10-31T11:04:34;461.70;2380.80
54796;DHT22;40693;43.884;20.340;2023-10-31T11:07:00;461.70;2380.80
54796;DHT22;40693;43.884;20.340;2023-10-31T11:09:27;486.50;2380.80
54796;DHT22;40693;43.884;20.340;2023-10-31T11:11:54;486.60;2380.80
54796;DHT22;40693;43.884;20.340;2023-10-31T11:14:20;486.60;2380.80
54796;DHT22;40693;43.884;20.340;2023-10-31T11:16:51;487.20;2380.80
54796;DHT22;40693;43.884;20.340;2023-10-31T11:19:17;486.90;2380.80
54796;DHT22;40693;43.884;20.340;2023-10-31T11:22:02;487.20;2380.80
54796;DHT22;40693;43.884;20.340;2023-10-31T11:24:31;512.10;2380.80
54796;DHT22;40693;43.884;20.340;2023-10-31T11:27:01;512.30;2355.20
54796;DHT22;40693;43.884;20.340;2023-10-31T11:29:27;512.80;2304.00
54796;DHT22;40693;43.884;20.340;2023-10-31T11:31:56;538.00;2227.20
54796;DHT22;40693;43.884;20.340;2023-10-31T11:34:26;538.40;2099.20
54796;DHT22;40693;43.884;20.340;2023-10-31T11:36:52;563.40;2048.00
54796;DHT22;40693;43.884;20.340;2023-10-31T11:39:22;563.80;1996.80
54796;DHT22;40693;43.884;20.340;2023-10-31T11:41:54;588.80;1843.20
54796;DHT22;40693;43.884;20.340;2023-10-31T11:44:26;589.10;1740.80
54796;DHT22;40693;43.884;20.340;2023-10-31T11:46:52;589.20;1715.20
54796;DHT22;40693;43.884;20.340;2023-10-31T11:49:47;589.60;1689.60
54796;DHT22;40693;43.884;20.340;2023-10-31T11:52:16;589.60;1664.00
54796;DHT22;40693;43.884;20.340;2023-10-31T11:54:43;614.50;1664.00
54796;DHT22;40693;43.884;20.340;2023-10-31T11:57:08;614.70;1638.40
54796;DHT22;40693;43.884;20.340;2023-10-31T11:59:38;614.90;1612.80
54796;DHT22;40693;43.884;20.340;2023-10-31T12:04:40;615.30;1561.60
54796;DHT22;40693;43.884;20.340;2023-10-31T12:09:32;615.30;1536.00
54796;DHT22;40693;43.884;20.340;2023-10-31T12:11:58;615.30;1536.00
54796;DHT22;40693;43.884;20.340;2023-10-31T12:14:23;615.20;1536.00
54796;DHT22;40693;43.884;20.340;2023-10-31T12:16:49;615.10;1561.60
54796;DHT22;40693;43.884;20.340;2023-10-31T12:19:15;615.20;1536.00
54796;DHT22;40693;43.884;20.340;2023-10-31T12:21:45;615.10;1536.00
54796;DHT22;40693;43.884;20.340;2023-10-31T12:24:22;615.10;1536.00
54796;DHT22;40693;43.884;20.340;2023-10-31T12:26:48;615.00;1536.00
54796;DHT22;40693;43.884;20.340;2023-10-31T12:29:14;614.90;1536.00
54796;DHT22;40693;43.884;20.340;2023-10-31T12:31:51;614.80;1536.00
54796;DHT22;40693;43.884;20.340;2023-10-31T12:34:22;614.80;1536.00
54796;DHT22;40693;43.884;20.340;2023-10-31T12:36:51;614.80;1536.00
54796;DHT22;40693;43.884;20.340;2023-10-31T12:39:20;614.70;1536.00
54796;DHT22;40693;43.884;20.340;2023-10-31T12:41:47;614.70;1536.00
54796;DHT22;40693;43.884;20.340;2023-10-31T12:44:16;614.70;1561.60
54796;DHT22;40693;43.884;20.340;2023-10-31T12:46:44;614.70;1536.00
54796;DHT22;40693;43.884;20.340;2023-10-31T12:49:17;614.60;1561.60
54796;DHT22;40693;43.884;20.340;2023-10-31T12:52:02;614.50;1561.60
54796;DHT22;40693;43.884;20.340;2023-10-31T12:54:36;614.40;1561.60
54796;DHT22;40693;43.884;20.340;2023-10-31T12:57:07;589.70;1561.60
54796;DHT22;40693;43.884;20.340;2023-10-31T12:59:34;589.70;1587.20
54796;DHT22;40693;43.884;20.340;2023-10-31T13:02:02;589.70;1587.20
54796;DHT22;40693;43.884;20.340;2023-10-31T13:04:30;614.40;1715.20
54796;DHT22;40693;43.884;20.340;2023-10-31T13:07:03;614.80;1715.20
54796;DHT22;40693;43.884;20.340;2023-10-31T13:09:33;614.80;1536.00
54796;DHT22;40693;43.884;20.340;2023-10-31T13:12:03;614.80;1510.40
54796;DHT22;40693;43.884;20.340;2023-10-31T13:14:29;614.70;1484.80
54796;DHT22;40693;43.884;20.340;2023-10-31T13:16:55;614.60;1510.40
54796;DHT22;40693;43.884;20.340;2023-10-31T13:19:21;614.60;1510.40
54796;DHT22;40693;43.884;20.340;2023-10-31T13:21:48;614.60;1510.40
54796;DHT22;40693;43.884;20.340;2023-10-31T13:24:14;614.50;1510.40
54796;DHT22;40693;43.884;20.340;2023-10-31T13:26:39;614.40;1510.40
54796;DHT22;40693;43.884;20.340;2023-10-31T13:29:05;589.70;1484.80
54796;DHT22;40693;43.884;20.340;2023-10-31T13:31:31;589.70;1510.40
54796;DHT22;40693;43.884;20.340;2023-10-31T13:33:57;589.70;1510.40
54796;DHT22;40693;43.884;20.340;2023-10-31T13:36:23;589.70;1536.00
54796;DHT22;40693;43.884;20.340;2023-10-31T13:38:49;589.70;1561.60
54796;DHT22;40693;43.884;20.340;2023-10-31T13:41:15;614.50;1638.40
54796;DHT22;40693;43.884;20.340;2023-10-31T13:43:41;614.40;1638.40
54796;DHT22;40693;43.884;20.340;2023-10-31T13:46:06;614.50;1664.00
54796;DHT22;40693;43.884;20.340;2023-10-31T13:48:34;614.70;1766.40
54796;DHT22;40693;43.884;20.340;2023-10-31T13:50:59;614.90;1766.40
54796;DHT22;40693;43.884;20.340;2023-10-31T13:53:25;615.20;1766.40
54796;DHT22;40693;43.884;20.340;2023-10-31T13:55:51;615.30;1740.80
54796;DHT22;40693;43.884;20.340;2023-10-31T13:58:17;640.00;1740.80
54796;DHT22;40693;43.884;20.340;2023-10-31T14:00:43;640.10;1740.80
54796;DHT22;40693;43.884;20.340;2023-10-31T14:03:11;640.10;1740.80
54796;DHT22;40693;43.884;20.340;2023-10-31T14:05:36;640.10;1715.20
54796;DHT22;40693;43.884;20.340;2023-10-31T14:08:04;640.00;1740.80
54796;DHT22;40693;43.884;20.340;2023-10-31T14:10:30;615.30;1587.20
54796;DHT22;40693;43.884;20.340;2023-10-31T14:12:56;615.30;1715.20
54796;DHT22;40693;43.884;20.340;2023-10-31T14:15:22;615.30;1664.00
54796;DHT22;40693;43.884;20.340;2023-10-31T14:17:50;615.30;1612.80
54796;DHT22;40693;43.884;20.340;2023-10-31T14:20:16;615.10;1587.20
54796;DHT22;40693;43.884;20.340;2023-10-31T14:22:47;614.90;1536.00
54796;DHT22;40693;43.884;20.340;2023-10-31T14:25:13;614.80;1536.00
54796;DHT22;40693;43.884;20.340;2023-10-31T14:27:39;614.70;1561.60
54796;DHT22;40693;43.884;20.340;2023-10-31T14:30:05;614.60;1536.00
54796;DHT22;40693;43.884;20.340;2023-10-31T14:32:32;614.40;1536.00
54796;DHT22;40693;43.884;20.340;2023-10-31T14:34:58;589.70;1536.00
54796;DHT22;40693;43.884;20.340;2023-10-31T14:37:24;589.60;1536.00
54796;DHT22;40693;43.884;20.340;2023-10-31T14:39:50;589.40;1561.60
54796;DHT22;40693;43.884;20.340;2023-10-31T14:42:16;589.40;1561.60